aviador You're here:

CYPX Decoded Metar

PUVIRGNITUQ in QC, CANADA
Report Time2017-06-25 13:00:00
UTC Time2017-06-25 13:45:11
Flight Rules vfr VFR
Wind310° at 23 Gusting to 28 kt
W.Decomp.*RWY 01: 17.9 kt HW 14.5 kt LCW
W.Rank310° ranks 6
Current wind is above 310° avg. (12.2)
Visibility9999 m
Phenomena:N/A
Clouds:Overcast 034 Hf
Expected CloudBase > 2,000 ft AGL from Temp-Dew spread
Ceiling3,400 ft
Temp07°C (ISA -8)
Dew Point02°C (71% RH)
AAT-2.9°C
QNH1003 hPa
Density Alt-430 ft
Elevation75 ft
Report Wrong Elevation
Raw Report
CYPX 251300Z AUTO 31023G28KT 9SM OVC034 07/02 A2962 RMK SLP034=

Extra information for CYPX:More info

Metar Taf Metar & Taf Last 4 Metars F.Rules Stats Wind Profile Meteogram Temp Stats Airport Information Weather charts Add Link Nearby VenuesMetar ALERT Operation Metar Decoded Social comments